Time;durP1;ratioP1;P1;durP2;ratioP2;P2;SDS_P1;SDS_P2;PMS_P1;PMS_P2;Temp;Humidity;BMP_temperature;BMP_pressure;BME280_temperature;BME280_humidity;BME280_pressure;Samples;Min_cycle;Max_cycle;Signal;HPM_P1;HPM_P2
2023/02/27 00:02:24;;;;;;;6.25;2.78;;;11.40;73.80;;;;;;5056276;28;20190;-74
2023/02/27 00:04:50;;;;;;;4.35;2.58;;;11.40;74.10;;;;;;5049091;28;20187;-73
2023/02/27 00:07:16;;;;;;;5.72;2.80;;;11.40;74.10;;;;;;5051824;28;20199;-74
2023/02/27 00:09:42;;;;;;;4.22;2.72;;;11.40;74.20;;;;;;5048107;28;20213;-74
2023/02/27 00:12:09;;;;;;;4.00;2.58;;;11.40;74.40;;;;;;5051811;28;20197;-74
2023/02/27 00:14:35;;;;;;;4.13;2.53;;;11.30;74.40;;;;;;5044553;28;20263;-74
2023/02/27 00:17:01;;;;;;;7.30;3.08;;;11.40;74.30;;;;;;5050076;28;20194;-74
2023/02/27 00:19:26;;;;;;;7.75;3.20;;;11.30;74.80;;;;;;5045692;28;20195;-73
2023/02/27 00:21:52;;;;;;;6.32;2.78;;;11.20;75.30;;;;;;5054636;28;20180;-74
2023/02/27 00:24:18;;;;;;;8.88;2.63;;;11.20;75.10;;;;;;5048571;28;21095;-74
2023/02/27 00:26:44;;;;;;;4.38;2.45;;;11.20;75.10;;;;;;5053293;28;20335;-74
2023/02/27 00:29:09;;;;;;;7.35;2.70;;;11.30;75.10;;;;;;5049117;28;20214;-73
2023/02/27 00:31:36;;;;;;;3.33;2.20;;;11.30;75.30;;;;;;5049486;28;20183;-74
2023/02/27 00:34:02;;;;;;;9.68;2.53;;;11.40;74.30;;;;;;5049462;28;20188;-74
2023/02/27 00:36:28;;;;;;;6.53;2.58;;;11.40;74.20;;;;;;5044944;28;20720;-74
2023/02/27 00:38:54;;;;;;;4.45;1.80;;;11.50;73.70;;;;;;5050325;28;20183;-74
2023/02/27 00:41:19;;;;;;;10.18;2.63;;;11.50;73.90;;;;;;5050213;28;20187;-73
2023/02/27 00:43:45;;;;;;;3.05;1.65;;;11.50;73.60;;;;;;5052073;28;20606;-74
2023/02/27 00:46:11;;;;;;;6.55;1.75;;;11.60;73.10;;;;;;5045937;28;20276;-73
2023/02/27 00:48:36;;;;;;;3.28;1.95;;;11.70;73.60;;;;;;5047660;28;20263;-72
2023/02/27 00:51:02;;;;;;;8.70;1.60;;;11.80;73.10;;;;;;5054773;28;20697;-73
2023/02/27 00:53:28;;;;;;;7.28;1.40;;;11.80;73.20;;;;;;5049949;28;20187;-74
2023/02/27 00:55:53;;;;;;;13.75;1.88;;;11.80;73.10;;;;;;5051247;28;20882;-74
2023/02/27 00:58:19;;;;;;;10.48;2.03;;;11.70;73.30;;;;;;5048641;28;20672;-74
2023/02/27 01:00:45;;;;;;;5.32;2.30;;;11.70;73.20;;;;;;5046459;28;20179;-74
2023/02/27 01:03:10;;;;;;;3.17;2.03;;;11.70;73.90;;;;;;5046080;28;20176;-73
2023/02/27 01:05:36;;;;;;;3.05;2.03;;;11.70;73.70;;;;;;5052244;28;20190;-74
2023/02/27 01:08:02;;;;;;;7.78;2.50;;;11.70;73.80;;;;;;5047851;28;20221;-74
2023/02/27 01:10:28;;;;;;;5.85;2.38;;;11.70;74.00;;;;;;5051009;28;20186;-74
2023/02/27 01:12:53;;;;;;;6.68;2.45;;;11.60;74.20;;;;;;5047070;28;20242;-73
2023/02/27 01:15:19;;;;;;;2.67;2.03;;;11.60;74.30;;;;;;5051525;28;20663;-73
2023/02/27 01:17:46;;;;;;;7.25;2.85;;;11.50;74.80;;;;;;5042861;28;20180;-74
2023/02/27 01:20:13;;;;;;;5.85;2.35;;;11.50;75.10;;;;;;5046983;28;20271;-74
2023/02/27 01:22:38;;;;;;;4.88;2.90;;;11.40;75.00;;;;;;5047920;28;20703;-74
2023/02/27 01:25:04;;;;;;;8.00;2.10;;;11.40;75.20;;;;;;5047049;28;20193;-73
2023/02/27 01:27:30;;;;;;;10.48;3.03;;;11.40;75.50;;;;;;5047297;28;20187;-74
2023/02/27 01:29:56;;;;;;;6.70;2.50;;;11.40;75.60;;;;;;5046526;28;20690;-73
2023/02/27 01:32:21;;;;;;;7.05;2.83;;;11.40;75.50;;;;;;5047025;28;20643;-73
2023/02/27 01:34:47;;;;;;;5.75;3.00;;;11.30;75.80;;;;;;5051416;28;20265;-74
2023/02/27 01:37:13;;;;;;;9.43;2.60;;;11.30;75.50;;;;;;5048801;28;20186;-74
2023/02/27 01:39:38;;;;;;;4.85;2.92;;;11.40;75.60;;;;;;5051811;28;20594;-73
2023/02/27 01:42:12;;;;;;;5.80;2.90;;;11.40;75.50;;;;;;5051246;28;20187;-73
2023/02/27 01:45:16;;;;;;;8.95;3.33;;;11.40;75.60;;;;;;5044408;28;20206;-73
2023/02/27 01:47:45;;;;;;;8.52;2.63;;;11.40;75.50;;;;;;5052646;28;20186;-74
2023/02/27 01:50:12;;;;;;;5.30;2.80;;;11.40;75.70;;;;;;5048639;28;20180;-72
2023/02/27 01:52:40;;;;;;;4.75;2.75;;;11.40;75.80;;;;;;5044496;28;20634;-73
2023/02/27 01:55:07;;;;;;;10.65;3.22;;;11.40;75.50;;;;;;5044765;28;20287;-72
2023/02/27 01:57:35;;;;;;;5.20;2.90;;;11.40;75.70;;;;;;5049488;28;21986;-74
2023/02/27 02:00:01;;;;;;;6.82;2.90;;;11.40;75.80;;;;;;5052348;28;20211;-72
2023/02/27 02:02:34;;;;;;;4.57;2.17;;;11.40;76.00;;;;;;5052238;28;20269;-73
2023/02/27 02:05:00;;;;;;;3.90;3.03;;;11.40;76.10;;;;;;5051183;28;20171;-73
2023/02/27 02:07:27;;;;;;;3.35;2.67;;;11.40;75.90;;;;;;5050364;28;20193;-74
2023/02/27 02:09:57;;;;;;;7.40;2.95;;;11.40;75.60;;;;;;5043594;28;20198;-73
2023/02/27 02:12:27;;;;;;;7.18;2.35;;;11.50;75.70;;;;;;5054680;28;20191;-74
2023/02/27 02:14:53;;;;;;;4.35;2.28;;;11.50;76.20;;;;;;5050231;28;20237;-74
2023/02/27 02:17:34;;;;;;;8.90;2.50;;;11.50;76.70;;;;;;5044389;28;20238;-74
2023/02/27 02:20:34;;;;;;;5.95;2.38;;;11.60;77.20;;;;;;5051952;28;20896;-73
2023/02/27 02:23:37;;;;;;;5.70;1.48;;;11.50;79.60;;;;;;5049396;28;20182;-74
2023/02/27 02:26:47;;;;;;;3.70;0.93;;;11.50;81.80;;;;;;5052288;28;20291;-74
2023/02/27 02:29:32;;;;;;;1.30;0.30;;;10.80;89.20;;;;;;5039961;28;20199;-75
2023/02/27 02:32:30;;;;;;;1.85;0.20;;;10.10;89.00;;;;;;5038886;28;20233;-74
2023/02/27 02:35:16;;;;;;;0.28;0.28;;;9.80;91.00;;;;;;5039744;28;20648;-74
2023/02/27 02:37:50;;;;;;;2.30;0.20;;;9.40;91.40;;;;;;5039370;28;20195;-74
2023/02/27 02:40:23;;;;;;;2.10;0.10;;;9.40;93.10;;;;;;5038206;28;20206;-74
2023/02/27 02:43:01;;;;;;;0.07;0.07;;;9.30;93.30;;;;;;5039465;28;20183;-74
2023/02/27 02:45:39;;;;;;;2.73;0.20;;;9.20;93.90;;;;;;5024559;28;20187;-74
2023/02/27 02:48:27;;;;;;;0.10;0.10;;;9.20;94.60;;;;;;5026557;28;20198;-74
2023/02/27 02:51:05;;;;;;;0.10;0.10;;;9.20;95.40;;;;;;5041972;28;20199;-74
2023/02/27 02:54:11;;;;;;;0.10;0.10;;;9.20;96.20;;;;;;5042709;28;20183;-74
2023/02/27 02:57:05;;;;;;;1.50;0.00;;;9.20;96.50;;;;;;5042596;28;20247;-74
2023/02/27 02:59:40;;;;;;;0.10;0.10;;;9.20;97.30;;;;;;4954512;28;20210;-74
2023/02/27 03:02:10;;;;;;;0.10;0.10;;;9.10;98.50;;;;;;4952759;28;20194;-74
2023/02/27 03:04:40;;;;;;;2.33;0.27;;;9.10;98.50;;;;;;4961677;28;20189;-74
2023/02/27 03:07:19;;;;;;;0.13;0.13;;;9.20;98.50;;;;;;4980974;28;20256;-74
2023/02/27 03:09:50;;;;;;;0.20;0.20;;;9.20;98.50;;;;;;4979597;28;20209;-74
2023/02/27 03:12:21;;;;;;;0.60;0.30;;;9.20;98.50;;;;;;4980021;28;20288;-74
2023/02/27 03:15:03;;;;;;;3.27;0.60;;;9.20;98.40;;;;;;4977772;28;20614;-75
2023/02/27 03:17:41;;;;;;;0.50;0.50;;;9.10;98.00;;;;;;4976487;28;20196;-73
2023/02/27 03:20:11;;;;;;;0.47;0.47;;;9.10;97.70;;;;;;4976352;28;20273;-73
2023/02/27 03:22:39;;;;;;;0.70;0.70;;;9.00;96.10;;;;;;4975199;28;20635;-73
2023/02/27 03:25:15;;;;;;;1.80;0.70;;;8.90;95.20;;;;;;4975261;28;20198;-74
2023/02/27 03:27:51;;;;;;;0.70;0.70;;;8.70;94.20;;;;;;4973552;28;20210;-73
2023/02/27 03:30:28;;;;;;;1.03;1.03;;;8.60;93.70;;;;;;4975143;28;20202;-74
2023/02/27 03:33:07;;;;;;;0.60;0.60;;;8.40;93.50;;;;;;4974040;28;20259;-73
2023/02/27 03:35:56;;;;;;;0.40;0.40;;;8.30;93.60;;;;;;4982064;28;20221;-73
2023/02/27 03:38:37;;;;;;;0.60;0.60;;;8.20;93.60;;;;;;5011830;28;20286;-73
2023/02/27 03:41:17;;;;;;;2.10;0.60;;;8.00;93.90;;;;;;5010802;28;20204;-73
2023/02/27 03:43:52;;;;;;;2.10;0.40;;;7.90;93.90;;;;;;5009558;28;20197;-74
2023/02/27 03:46:22;;;;;;;0.60;0.60;;;7.70;94.00;;;;;;4992058;28;20188;-74
2023/02/27 03:48:48;;;;;;;0.60;0.60;;;7.40;94.40;;;;;;5012589;28;20188;-74
2023/02/27 03:51:17;;;;;;;0.60;0.60;;;7.40;95.30;;;;;;4990101;28;20192;-73
2023/02/27 03:53:48;;;;;;;0.67;0.67;;;7.40;95.90;;;;;;5010026;28;20185;-73
2023/02/27 03:56:17;;;;;;;0.60;0.60;;;7.40;94.50;;;;;;5008542;28;20759;-73
2023/02/27 03:58:43;;;;;;;0.60;0.60;;;7.40;94.60;;;;;;5008836;28;20197;-74
2023/02/27 04:01:08;;;;;;;1.00;0.87;;;7.30;95.60;;;;;;5009208;28;20214;-74
2023/02/27 04:03:40;;;;;;;0.60;0.60;;;7.20;96.30;;;;;;5009613;28;20197;-73
2023/02/27 04:09:10;;;;;;;0.80;0.40;;;7.20;97.20;;;;;;4929567;29;20255;-74
2023/02/27 04:11:55;;;;;;;0.60;0.60;;;7.20;97.30;;;;;;4933243;29;20281;-74
2023/02/27 04:14:55;;;;;;;0.70;0.60;;;7.30;97.50;;;;;;4935301;28;20223;-74
2023/02/27 04:17:28;;;;;;;0.30;0.30;;;7.30;97.20;;;;;;4972046;28;20221;-73
2023/02/27 04:20:14;;;;;;;0.70;0.70;;;7.30;97.40;;;;;;4971300;28;20243;-73
2023/02/27 04:22:46;;;;;;;0.40;0.40;;;7.30;97.40;;;;;;4986545;28;20186;-74
2023/02/27 04:25:37;;;;;;;1.73;0.57;;;7.20;97.10;;;;;;4987457;28;20186;-74
2023/02/27 04:28:12;;;;;;;1.30;0.47;;;7.20;96.70;;;;;;4988684;28;20236;-74
2023/02/27 04:30:38;;;;;;;0.73;0.73;;;7.20;96.30;;;;;;4989177;28;20254;-73
2023/02/27 04:33:09;;;;;;;0.80;0.80;;;7.20;96.20;;;;;;4989908;28;20201;-73
2023/02/27 04:35:47;;;;;;;0.67;0.50;;;7.10;95.80;;;;;;4985612;28;20230;-73
2023/02/27 04:38:24;;;;;;;0.40;0.40;;;7.10;96.10;;;;;;4990242;28;20275;-73
2023/02/27 04:40:56;;;;;;;0.40;0.40;;;7.10;95.80;;;;;;4987115;28;20193;-73
2023/02/27 04:43:25;;;;;;;0.93;0.30;;;7.00;94.30;;;;;;4983696;28;20705;-73
2023/02/27 04:45:54;;;;;;;0.47;0.47;;;7.00;94.50;;;;;;5028826;28;20630;-73
2023/02/27 04:48:26;;;;;;;0.80;0.53;;;7.00;94.30;;;;;;5045651;28;20195;-74
2023/02/27 04:51:24;;;;;;;0.40;0.40;;;7.00;93.70;;;;;;5051296;28;20881;-73
2023/02/27 04:53:55;;;;;;;0.37;0.37;;;6.90;93.60;;;;;;5049457;28;20198;-74
2023/02/27 04:56:28;;;;;;;0.57;0.57;;;6.90;93.20;;;;;;5051055;28;20223;-74
2023/02/27 04:58:59;;;;;;;0.47;0.47;;;6.80;93.80;;;;;;5052267;28;20183;-74
2023/02/27 05:01:46;;;;;;;0.50;0.50;;;6.70;93.70;;;;;;5044697;28;20244;-73
2023/02/27 05:04:16;;;;;;;0.20;0.20;;;6.70;94.70;;;;;;5044743;28;20245;-74
2023/02/27 05:06:46;;;;;;;0.30;0.30;;;6.70;94.80;;;;;;5048310;28;20191;-75
2023/02/27 05:09:39;;;;;;;0.57;0.50;;;6.70;94.80;;;;;;5051434;28;20623;-75
2023/02/27 05:12:13;;;;;;;0.20;0.20;;;6.70;94.60;;;;;;5055308;28;20195;-75
2023/02/27 05:15:02;;;;;;;0.30;0.30;;;6.80;93.60;;;;;;5046167;28;20187;-75
2023/02/27 05:17:56;;;;;;;0.60;0.30;;;6.90;93.10;;;;;;5038554;28;20333;-75
2023/02/27 05:20:26;;;;;;;0.20;0.20;;;6.90;93.10;;;;;;5039127;28;20183;-75
2023/02/27 05:23:02;;;;;;;0.27;0.27;;;6.90;92.90;;;;;;5040598;28;20192;-75
2023/02/27 05:25:57;;;;;;;0.67;0.20;;;6.90;92.80;;;;;;5040401;28;20207;-75
2023/02/27 05:28:33;;;;;;;0.20;0.20;;;6.90;92.80;;;;;;5020066;28;20689;-77
2023/02/27 05:31:16;;;;;;;0.50;0.30;;;6.80;92.70;;;;;;5037662;28;20198;-77
2023/02/27 05:33:53;;;;;;;1.17;0.40;;;6.70;93.60;;;;;;5038624;28;20191;-77
2023/02/27 05:36:36;;;;;;;1.80;0.30;;;6.80;93.10;;;;;;5039655;28;20337;-75
2023/02/27 05:39:05;;;;;;;0.20;0.20;;;6.80;92.70;;;;;;5039313;28;20451;-74
2023/02/27 05:41:42;;;;;;;0.30;0.30;;;6.70;93.30;;;;;;5041033;28;20236;-75
2023/02/27 05:44:18;;;;;;;0.37;0.30;;;6.60;93.00;;;;;;5038867;28;20187;-76
2023/02/27 05:46:51;;;;;;;1.70;0.37;;;6.70;92.80;;;;;;5036319;28;20202;-77
2023/02/27 05:49:28;;;;;;;0.27;0.27;;;6.70;93.40;;;;;;5037587;28;20206;-78
2023/02/27 05:51:57;;;;;;;0.40;0.40;;;6.70;93.00;;;;;;5037795;28;20187;-78
2023/02/27 05:54:47;;;;;;;0.90;0.40;;;6.80;92.90;;;;;;5032103;28;20195;-77
2023/02/27 05:57:18;;;;;;;0.50;0.20;;;6.90;92.80;;;;;;5047599;28;20191;-78
2023/02/27 05:59:52;;;;;;;0.20;0.20;;;6.80;92.80;;;;;;5043401;28;20222;-77
2023/02/27 06:02:18;;;;;;;1.53;0.30;;;6.80;93.70;;;;;;5044504;28;20245;-75
2023/02/27 06:04:44;;;;;;;0.20;0.20;;;6.90;93.10;;;;;;5047883;28;20187;-74
2023/02/27 06:07:12;;;;;;;0.27;0.27;;;7.00;92.30;;;;;;5045820;28;20201;-74
2023/02/27 06:09:38;;;;;;;0.23;0.23;;;7.00;91.80;;;;;;5048789;28;20179;-75
2023/02/27 06:12:04;;;;;;;0.43;0.43;;;7.00;93.00;;;;;;5049117;28;20213;-76
2023/02/27 06:14:29;;;;;;;0.30;0.30;;;7.00;93.20;;;;;;5045271;28;20613;-75
2023/02/27 06:16:55;;;;;;;0.30;0.30;;;7.10;93.60;;;;;;5050679;28;20595;-75
2023/02/27 06:19:21;;;;;;;0.27;0.27;;;7.10;94.00;;;;;;5043954;28;20186;-75
2023/02/27 06:21:46;;;;;;;0.30;0.30;;;7.20;91.90;;;;;;5051191;28;20189;-75
2023/02/27 06:24:12;;;;;;;1.80;0.50;;;7.30;92.40;;;;;;5046516;28;20188;-75
2023/02/27 06:26:37;;;;;;;2.00;0.40;;;7.40;91.90;;;;;;5051341;28;20184;-75
2023/02/27 06:29:03;;;;;;;0.47;0.47;;;7.50;91.90;;;;;;5044942;28;21100;-75
2023/02/27 06:31:29;;;;;;;0.20;0.20;;;7.60;89.80;;;;;;5047312;28;20185;-75
2023/02/27 06:33:54;;;;;;;0.53;0.53;;;7.50;88.60;;;;;;5049215;28;20186;-74
2023/02/27 06:36:21;;;;;;;0.63;0.40;;;7.50;88.90;;;;;;5045494;28;20215;-75
2023/02/27 06:38:47;;;;;;;0.60;0.60;;;7.40;89.40;;;;;;5051385;28;20231;-74
2023/02/27 06:41:13;;;;;;;0.33;0.33;;;7.40;89.40;;;;;;5047754;28;20293;-74
2023/02/27 06:43:39;;;;;;;0.33;0.33;;;7.40;88.60;;;;;;5045078;28;20180;-75
2023/02/27 06:46:05;;;;;;;0.30;0.30;;;7.30;89.10;;;;;;5048548;28;20193;-75
2023/02/27 06:48:30;;;;;;;2.10;0.50;;;7.30;89.80;;;;;;5047941;28;20190;-74
2023/02/27 06:50:56;;;;;;;0.40;0.40;;;7.30;90.70;;;;;;5049337;28;20184;-74
2023/02/27 06:53:23;;;;;;;0.50;0.50;;;7.30;90.90;;;;;;5050012;28;20186;-74
2023/02/27 06:55:49;;;;;;;2.10;0.33;;;7.40;90.00;;;;;;5050771;28;20321;-75
2023/02/27 06:58:15;;;;;;;0.50;0.50;;;7.50;89.20;;;;;;5052753;28;20183;-74
2023/02/27 07:00:42;;;;;;;0.63;0.63;;;7.50;88.70;;;;;;5050693;28;21051;-74
2023/02/27 07:03:08;;;;;;;1.30;0.50;;;7.60;88.30;;;;;;5049424;28;20180;-74
2023/02/27 07:05:34;;;;;;;0.53;0.53;;;7.60;89.50;;;;;;5047405;28;20274;-75
2023/02/27 07:07:59;;;;;;;1.07;0.80;;;7.60;89.50;;;;;;5049367;28;20877;-75
2023/02/27 07:10:25;;;;;;;0.50;0.50;;;7.70;89.90;;;;;;5049371;28;20686;-75
2023/02/27 07:12:51;;;;;;;0.63;0.63;;;7.80;89.50;;;;;;5046603;28;20253;-75
2023/02/27 07:15:16;;;;;;;0.90;0.60;;;7.90;88.70;;;;;;5052087;28;20249;-75
2023/02/27 07:17:42;;;;;;;1.60;0.63;;;7.90;88.20;;;;;;5047660;28;20211;-75
2023/02/27 07:20:09;;;;;;;0.70;0.70;;;8.00;87.80;;;;;;5052024;28;20729;-75
2023/02/27 07:22:36;;;;;;;0.70;0.70;;;7.80;88.00;;;;;;5048710;28;20179;-75
2023/02/27 07:25:02;;;;;;;0.90;0.90;;;7.80;88.30;;;;;;5049237;28;20259;-75
2023/02/27 07:27:28;;;;;;;0.80;0.80;;;7.90;87.30;;;;;;5046314;28;20691;-75
2023/02/27 07:29:54;;;;;;;0.80;0.70;;;7.90;87.20;;;;;;5052445;28;20207;-75
2023/02/27 07:32:19;;;;;;;6.60;0.53;;;7.90;87.90;;;;;;5051845;28;20222;-75
2023/02/27 07:34:45;;;;;;;0.40;0.40;;;8.00;89.30;;;;;;5052724;28;20175;-75
2023/02/27 07:37:11;;;;;;;0.80;0.80;;;8.20;88.80;;;;;;5049365;28;20253;-75
2023/02/27 07:39:37;;;;;;;0.57;0.57;;;8.60;88.10;;;;;;5055710;28;20599;-75
2023/02/27 07:42:02;;;;;;;0.73;0.70;;;8.90;84.50;;;;;;5055741;28;20175;-75
2023/02/27 07:44:28;;;;;;;1.13;0.50;;;9.30;85.20;;;;;;5058596;28;20182;-77
2023/02/27 07:46:54;;;;;;;0.40;0.40;;;9.80;84.10;;;;;;5052285;28;20184;-77
2023/02/27 07:49:19;;;;;;;0.40;0.40;;;10.30;82.00;;;;;;5055641;28;20237;-77
2023/02/27 07:51:45;;;;;;;0.33;0.33;;;10.60;80.30;;;;;;5049221;28;20313;-76
2023/02/27 07:54:10;;;;;;;0.40;0.40;;;10.90;80.00;;;;;;5051955;28;20226;-77
2023/02/27 07:56:36;;;;;;;0.50;0.50;;;11.20;79.30;;;;;;5049963;28;20218;-77
2023/02/27 07:59:02;;;;;;;0.40;0.40;;;11.60;78.10;;;;;;5048875;28;20188;-77
2023/02/27 08:01:27;;;;;;;0.60;0.30;;;11.90;78.00;;;;;;5051881;28;20206;-77
2023/02/27 08:03:55;;;;;;;0.60;0.60;;;12.10;76.60;;;;;;5054619;28;20183;-78
2023/02/27 08:06:22;;;;;;;0.47;0.47;;;12.30;75.90;;;;;;5047169;28;20191;-76
2023/02/27 08:08:48;;;;;;;0.40;0.40;;;12.40;76.60;;;;;;5055094;28;20248;-76
2023/02/27 08:11:14;;;;;;;1.75;0.47;;;12.50;76.10;;;;;;5052170;28;20206;-75
2023/02/27 08:13:40;;;;;;;0.57;0.57;;;12.40;74.80;;;;;;5050005;28;20196;-78
2023/02/27 08:16:07;;;;;;;0.43;0.38;;;12.50;76.60;;;;;;5050377;28;20313;-78
2023/02/27 08:18:32;;;;;;;0.63;0.60;;;12.70;76.90;;;;;;5051538;28;21642;-78
2023/02/27 08:20:58;;;;;;;0.50;0.50;;;13.00;76.00;;;;;;5055425;28;20172;-76
2023/02/27 08:23:24;;;;;;;1.30;0.57;;;13.30;74.90;;;;;;5055758;28;20222;-77
2023/02/27 08:25:50;;;;;;;1.05;0.73;;;13.60;74.90;;;;;;5049243;28;20203;-76
2023/02/27 08:28:17;;;;;;;2.50;0.80;;;14.00;72.90;;;;;;5053597;28;20180;-77
2023/02/27 08:30:43;;;;;;;0.80;0.80;;;14.40;73.70;;;;;;5043880;28;20211;-78
2023/02/27 08:33:09;;;;;;;1.02;0.70;;;15.00;72.30;;;;;;5051242;28;20211;-76
2023/02/27 08:35:35;;;;;;;1.35;0.60;;;15.50;72.50;;;;;;5051092;28;20231;-77
2023/02/27 08:38:02;;;;;;;6.38;0.57;;;16.20;71.20;;;;;;5055132;28;20190;-77
2023/02/27 08:40:27;;;;;;;0.60;0.60;;;16.90;68.70;;;;;;5047346;28;20190;-77
2023/02/27 08:42:53;;;;;;;0.45;0.45;;;17.70;69.10;;;;;;5047513;28;20673;-76
2023/02/27 08:45:18;;;;;;;0.52;0.52;;;18.50;66.70;;;;;;5044763;28;20260;-75
2023/02/27 08:47:44;;;;;;;0.85;0.85;;;19.10;64.10;;;;;;5040616;28;20188;-76
2023/02/27 08:50:11;;;;;;;0.45;0.45;;;19.40;63.40;;;;;;5033488;28;20188;-75
2023/02/27 08:52:37;;;;;;;0.82;0.82;;;19.70;64.90;;;;;;5046236;28;20234;-76
2023/02/27 08:55:03;;;;;;;0.55;0.55;;;20.30;62.80;;;;;;5045412;28;20270;-76
2023/02/27 08:57:29;;;;;;;1.45;0.70;;;20.70;60.60;;;;;;5046563;28;20265;-76
2023/02/27 08:59:54;;;;;;;1.00;0.85;;;20.70;60.10;;;;;;5049872;28;20176;-75
2023/02/27 09:02:24;;;;;;;0.73;0.70;;;20.60;60.00;;;;;;5041295;28;20650;-75
2023/02/27 09:04:50;;;;;;;2.05;0.70;;;20.50;59.80;;;;;;5044209;28;20183;-75
2023/02/27 09:07:16;;;;;;;0.90;0.90;;;20.40;60.10;;;;;;5047459;28;20214;-75
2023/02/27 09:09:42;;;;;;;0.80;0.80;;;20.20;60.40;;;;;;5048783;28;20179;-75
2023/02/27 09:12:08;;;;;;;1.85;1.20;;;20.40;61.60;;;;;;5047552;28;20179;-75
2023/02/27 09:14:33;;;;;;;1.08;1.05;;;20.70;59.10;;;;;;5050456;28;20179;-76
2023/02/27 09:16:59;;;;;;;0.90;0.90;;;20.60;60.60;;;;;;5049140;28;20212;-76
2023/02/27 09:19:25;;;;;;;1.17;0.90;;;20.80;60.20;;;;;;5048525;28;20191;-76
2023/02/27 09:21:50;;;;;;;1.27;1.27;;;21.10;60.00;;;;;;5048177;28;20727;-75
2023/02/27 09:24:16;;;;;;;0.90;0.90;;;21.00;59.00;;;;;;5049025;28;20186;-75
2023/02/27 09:26:42;;;;;;;0.60;0.60;;;21.00;58.30;;;;;;5045520;28;20180;-75
2023/02/27 09:29:07;;;;;;;0.52;0.52;;;20.80;59.00;;;;;;5047788;28;20202;-75
2023/02/27 09:31:33;;;;;;;0.80;0.80;;;20.80;59.80;;;;;;5051837;28;20180;-75
2023/02/27 09:34:00;;;;;;;0.75;0.73;;;20.80;59.50;;;;;;5043324;28;20183;-76
2023/02/27 09:36:26;;;;;;;0.52;0.52;;;20.70;58.40;;;;;;5049535;28;20230;-75
2023/02/27 09:38:52;;;;;;;0.50;0.50;;;20.50;59.60;;;;;;5048240;28;20731;-76
2023/02/27 09:41:46;;;;;;;1.55;0.70;;;20.10;59.50;;;;;;5051029;28;20237;-76
2023/02/27 09:44:21;;;;;;;0.90;0.90;;;19.70;60.60;;;;;;5051857;28;20180;-76
2023/02/27 09:46:47;;;;;;;1.08;0.90;;;19.40;61.50;;;;;;5044747;28;22039;-75
2023/02/27 09:49:18;;;;;;;0.95;0.95;;;19.30;61.50;;;;;;5050809;28;20187;-76
2023/02/27 09:51:43;;;;;;;2.63;1.00;;;19.30;61.90;;;;;;5045252;28;20638;-75
2023/02/27 09:54:10;;;;;;;3.70;0.98;;;19.20;61.80;;;;;;5045717;28;20210;-76
2023/02/27 09:56:46;;;;;;;1.20;1.20;;;19.20;61.80;;;;;;5045153;28;20215;-75
2023/02/27 09:59:14;;;;;;;1.08;1.08;;;19.00;62.20;;;;;;5042122;28;20219;-75
2023/02/27 10:02:04;;;;;;;1.30;1.30;;;18.80;62.50;;;;;;5047574;28;20188;-74
2023/02/27 10:04:44;;;;;;;2.50;1.33;;;18.40;62.50;;;;;;5001308;28;20195;-75
2023/02/27 10:07:33;;;;;;;3.78;1.33;;;17.70;61.60;;;;;;5025991;28;20293;-75
2023/02/27 10:10:38;;;;;;;1.23;1.23;;;17.10;63.70;;;;;;5023714;28;20200;-76
2023/02/27 10:13:30;;;;;;;2.22;1.50;;;16.70;65.50;;;;;;4957208;28;20656;-75
2023/02/27 10:15:57;;;;;;;1.73;1.65;;;16.50;66.30;;;;;;4957962;28;20222;-75
2023/02/27 10:18:30;;;;;;;1.35;1.35;;;16.40;66.50;;;;;;4958881;28;20196;-74
2023/02/27 10:21:01;;;;;;;1.50;1.50;;;16.40;66.00;;;;;;4959477;28;20194;-74
2023/02/27 10:23:48;;;;;;;2.85;1.55;;;16.20;66.30;;;;;;4959760;28;20206;-74
2023/02/27 10:26:20;;;;;;;2.17;1.88;;;16.10;67.10;;;;;;4960964;28;20186;-74
2023/02/27 10:28:46;;;;;;;1.85;1.75;;;15.90;66.90;;;;;;4959328;28;20634;-73
2023/02/27 10:31:19;;;;;;;1.83;1.70;;;15.20;67.00;;;;;;4955872;28;20250;-73
2023/02/27 10:33:46;;;;;;;1.48;1.45;;;15.00;68.70;;;;;;4960150;28;20653;-74
2023/02/27 10:36:14;;;;;;;2.05;1.60;;;15.00;69.30;;;;;;4957178;28;20261;-73
2023/02/27 10:38:46;;;;;;;2.28;1.40;;;14.90;69.40;;;;;;4943025;28;20965;-73
2023/02/27 10:41:16;;;;;;;1.63;1.52;;;14.90;70.10;;;;;;4972302;28;20211;-74
2023/02/27 10:43:42;;;;;;;1.67;1.67;;;15.40;70.30;;;;;;5000082;28;20271;-73
2023/02/27 10:46:18;;;;;;;1.92;1.92;;;16.00;68.00;;;;;;5000261;28;20188;-73
2023/02/27 10:48:45;;;;;;;1.40;1.40;;;16.60;66.20;;;;;;5028956;28;20283;-74
2023/02/27 10:51:32;;;;;;;2.08;1.98;;;16.80;65.90;;;;;;5072080;28;20214;-73
2023/02/27 10:54:25;;;;;;;2.42;2.00;;;16.80;65.30;;;;;;5052190;28;20361;-74
2023/02/27 10:56:55;;;;;;;2.20;1.95;;;16.80;66.30;;;;;;5035667;28;20227;-72
2023/02/27 10:59:35;;;;;;;2.40;2.30;;;17.00;66.20;;;;;;5038547;28;20191;-73
2023/02/27 11:02:21;;;;;;;2.38;2.08;;;17.00;65.90;;;;;;5037520;28;20191;-74
2023/02/27 11:04:53;;;;;;;2.72;1.50;;;17.00;66.10;;;;;;5037343;28;20188;-73
2023/02/27 11:07:35;;;;;;;2.70;2.05;;;17.10;65.70;;;;;;5039613;28;20226;-73
2023/02/27 11:10:17;;;;;;;2.05;1.90;;;17.10;65.60;;;;;;5040844;28;20179;-73
2023/02/27 11:13:00;;;;;;;4.40;2.10;;;17.20;65.30;;;;;;5042457;28;20180;-74
2023/02/27 11:15:29;;;;;;;2.33;2.10;;;17.00;65.50;;;;;;5042148;28;20716;-73
2023/02/27 11:18:19;;;;;;;1.80;1.70;;;16.80;66.30;;;;;;5042430;28;20289;-74
2023/02/27 11:20:49;;;;;;;3.35;2.15;;;16.80;66.70;;;;;;5041661;28;20192;-73
2023/02/27 11:23:21;;;;;;;4.70;2.20;;;16.70;66.30;;;;;;5023626;28;20201;-73
2023/02/27 11:25:47;;;;;;;1.90;1.80;;;16.50;65.70;;;;;;5042364;28;20228;-74
2023/02/27 11:28:19;;;;;;;5.53;2.35;;;16.10;66.50;;;;;;5040844;28;20346;-73
2023/02/27 11:30:56;;;;;;;2.10;2.00;;;15.80;67.40;;;;;;5041253;28;20192;-73
2023/02/27 11:33:21;;;;;;;2.28;2.22;;;15.60;68.00;;;;;;5044592;28;20209;-73
2023/02/27 11:35:52;;;;;;;3.63;2.10;;;15.50;68.40;;;;;;5052715;28;20215;-73
2023/02/27 11:38:23;;;;;;;1.95;1.85;;;15.30;68.90;;;;;;5047748;28;20289;-73
2023/02/27 11:40:57;;;;;;;2.05;1.85;;;15.30;69.40;;;;;;5054535;28;20198;-73
2023/02/27 11:43:47;;;;;;;1.52;1.52;;;15.20;69.50;;;;;;5045947;28;20206;-74
2023/02/27 11:46:19;;;;;;;1.65;1.55;;;15.20;69.80;;;;;;4997276;28;20201;-76
2023/02/27 11:48:59;;;;;;;2.40;2.30;;;15.10;69.40;;;;;;4994152;28;20272;-75
2023/02/27 11:51:55;;;;;;;2.35;1.80;;;15.00;69.50;;;;;;5000413;28;20205;-74
2023/02/27 11:54:42;;;;;;;2.15;1.60;;;14.90;71.20;;;;;;4999230;28;20212;-75
2023/02/27 11:57:11;;;;;;;1.63;1.55;;;14.90;71.80;;;;;;4983038;28;20312;-73
2023/02/27 11:59:57;;;;;;;2.28;1.38;;;14.80;72.80;;;;;;5000823;28;20185;-75
2023/02/27 12:02:47;;;;;;;3.95;1.80;;;15.00;72.10;;;;;;5000160;28;20281;-75
2023/02/27 12:05:31;;;;;;;2.58;1.73;;;15.50;71.90;;;;;;5000880;28;20315;-75
2023/02/27 12:08:06;;;;;;;1.60;1.50;;;16.10;70.80;;;;;;5000245;28;20782;-75
2023/02/27 12:10:47;;;;;;;2.70;2.25;;;16.60;69.60;;;;;;4999783;28;20205;-75
2023/02/27 12:13:15;;;;;;;1.48;1.48;;;17.20;68.00;;;;;;4998763;28;20197;-74
2023/02/27 12:15:44;;;;;;;2.22;1.75;;;17.80;67.20;;;;;;5000514;28;20286;-75
2023/02/27 12:18:23;;;;;;;6.00;1.75;;;18.40;66.20;;;;;;4999780;28;20705;-75
2023/02/27 12:20:58;;;;;;;2.17;1.88;;;18.90;65.40;;;;;;5001684;28;20243;-74
2023/02/27 12:23:36;;;;;;;2.08;1.98;;;19.50;63.60;;;;;;5021891;28;20219;-75
2023/02/27 12:26:27;;;;;;;1.98;1.98;;;20.00;61.80;;;;;;5047919;28;20187;-75
2023/02/27 12:29:08;;;;;;;3.03;2.20;;;20.20;60.70;;;;;;5050550;28;20791;-75
2023/02/27 12:31:33;;;;;;;1.60;1.50;;;20.00;61.00;;;;;;5047553;28;20187;-74
2023/02/27 12:34:20;;;;;;;1.88;1.77;;;20.20;62.00;;;;;;5047955;28;20191;-75
2023/02/27 12:36:47;;;;;;;1.65;1.55;;;20.60;61.70;;;;;;5049884;28;21370;-74
2023/02/27 12:39:21;;;;;;;1.70;1.70;;;21.20;60.80;;;;;;5043704;28;20965;-74
2023/02/27 12:42:17;;;;;;;1.92;1.83;;;21.40;59.30;;;;;;5051769;28;20179;-74
2023/02/27 12:44:52;;;;;;;2.28;2.13;;;21.20;59.80;;;;;;5050936;28;20190;-74
2023/02/27 12:47:45;;;;;;;5.13;1.60;;;20.80;60.40;;;;;;5050568;28;22095;-74
2023/02/27 12:50:22;;;;;;;1.70;1.60;;;20.30;60.70;;;;;;5040346;28;20233;-75
2023/02/27 12:52:48;;;;;;;3.10;2.08;;;19.80;62.00;;;;;;5048166;28;20176;-74
2023/02/27 12:55:22;;;;;;;4.60;2.00;;;19.30;62.60;;;;;;5049712;28;20182;-74
2023/02/27 12:58:04;;;;;;;4.90;1.70;;;18.80;62.60;;;;;;5052515;28;20190;-74
2023/02/27 13:00:45;;;;;;;2.03;1.75;;;18.40;63.80;;;;;;5046155;28;20176;-74
2023/02/27 13:04:03;;;;;;;2.70;2.05;;;18.20;64.50;;;;;;5046445;28;20269;-74
2023/02/27 13:06:48;;;;;;;1.40;1.40;;;17.80;65.70;;;;;;5016188;28;20192;-74
2023/02/27 13:09:33;;;;;;;2.42;1.77;;;17.60;65.40;;;;;;5015420;28;20275;-74
2023/02/27 13:12:22;;;;;;;2.72;2.45;;;17.40;66.10;;;;;;5017652;28;20258;-74
2023/02/27 13:15:01;;;;;;;2.42;1.85;;;17.20;66.70;;;;;;5017136;28;20203;-74
2023/02/27 13:17:52;;;;;;;2.15;1.95;;;17.10;66.70;;;;;;5015860;28;20275;-74
2023/02/27 13:20:20;;;;;;;2.17;2.08;;;17.10;67.00;;;;;;5018911;28;20221;-74
2023/02/27 13:23:22;;;;;;;3.33;1.80;;;17.10;67.30;;;;;;5011519;28;20193;-74